<?xml version="1.0" encoding="UTF-8" standalone="no" ?>
<gpx xmlns="http://www.topografix.com/GPX/1/1" xmlns:xsi="http://www.w3.org/2001/XMLSchema-instance" xsi:schemaLocation="http://www.topografix.com/GPX/1/1 http://www.topografix.com/GPX/1/1/gpx.xsd" version="1.1" creator="VisuGPX - https://www.visugpx.com">
  <metadata>
    <name>Petit Som</name>
    <desc><![CDATA[Départ de la Ruchère]]></desc>
  </metadata>
  <trk>
    <name><![CDATA[Tracé actuel: 23 FEV 2013 08:22]]></name>
    <trkseg>
      <trkpt lat="45.40017" lon="5.79904">
        <ele>1242.64</ele>
        <time>2013-02-23T07:22:23Z</time>
      </trkpt>
      <trkpt lat="45.40016" lon="5.79904">
        <ele>1242.64</ele>
        <time>2013-02-23T07:22:33Z</time>
      </trkpt>
      <trkpt lat="45.40017" lon="5.79906">
        <ele>1243.12</ele>
        <time>2013-02-23T07:22:45Z</time>
      </trkpt>
      <trkpt lat="45.40016" lon="5.79907">
        <ele>1238.8</ele>
        <time>2013-02-23T07:22:49Z</time>
      </trkpt>
      <trkpt lat="45.40016" lon="5.79908">
        <ele>1234.95</ele>
        <time>2013-02-23T07:22:50Z</time>
      </trkpt>
      <trkpt lat="45.40017" lon="5.79908">
        <ele>1231.59</ele>
        <time>2013-02-23T07:22:51Z</time>
      </trkpt>
      <trkpt lat="45.40017" lon="5.79909">
        <ele>1228.7</ele>
        <time>2013-02-23T07:22:52Z</time>
      </trkpt>
      <trkpt lat="45.40017" lon="5.79908">
        <ele>1225.34</ele>
        <time>2013-02-23T07:22:53Z</time>
      </trkpt>
      <trkpt lat="45.40017" lon="5.79908">
        <ele>1219.09</ele>
        <time>2013-02-23T07:22:55Z</time>
      </trkpt>
      <trkpt lat="45.40015" lon="5.79907">
        <ele>1213.8</ele>
        <time>2013-02-23T07:22:57Z</time>
      </trkpt>
      <trkpt lat="45.40014" lon="5.79907">
        <ele>1208.51</ele>
        <time>2013-02-23T07:22:59Z</time>
      </trkpt>
      <trkpt lat="45.40014" lon="5.79907">
        <ele>1203.23</ele>
        <time>2013-02-23T07:23:00Z</time>
      </trkpt>
      <trkpt lat="45.40014" lon="5.79907">
        <ele>1203.23</ele>
        <time>2013-02-23T07:23:01Z</time>
      </trkpt>
      <trkpt lat="45.40014" lon="5.79907">
        <ele>1198.42</ele>
        <time>2013-02-23T07:23:03Z</time>
      </trkpt>
      <trkpt lat="45.40015" lon="5.79906">
        <ele>1194.09</ele>
        <time>2013-02-23T07:23:05Z</time>
      </trkpt>
      <trkpt lat="45.40015" lon="5.79904">
        <ele>1189.77</ele>
        <time>2013-02-23T07:23:07Z</time>
      </trkpt>
      <trkpt lat="45.40014" lon="5.79903">
        <ele>1185.92</ele>
        <time>2013-02-23T07:23:09Z</time>
      </trkpt>
      <trkpt lat="45.40014" lon="5.79902">
        <ele>1182.08</ele>
        <time>2013-02-23T07:23:11Z</time>
      </trkpt>
      <trkpt lat="45.40014" lon="5.79903">
        <ele>1177.75</ele>
        <time>2013-02-23T07:23:13Z</time>
      </trkpt>
      <trkpt lat="45.40014" lon="5.79903">
        <ele>1172.47</ele>
        <time>2013-02-23T07:23:16Z</time>
      </trkpt>
      <trkpt lat="45.40014" lon="5.79903">
        <ele>1168.62</ele>
        <time>2013-02-23T07:23:19Z</time>
      </trkpt>
      <trkpt lat="45.40015" lon="5.79903">
        <ele>1167.18</ele>
        <time>2013-02-23T07:23:20Z</time>
      </trkpt>
      <trkpt lat="45.40018" lon="5.79904">
        <ele>1160.93</ele>
        <time>2013-02-23T07:23:24Z</time>
      </trkpt>
      <trkpt lat="45.40018" lon="5.79906">
        <ele>1159.97</ele>
        <time>2013-02-23T07:23:26Z</time>
      </trkpt>
      <trkpt lat="45.40018" lon="5.79908">
        <ele>1159.01</ele>
        <time>2013-02-23T07:23:27Z</time>
      </trkpt>
      <trkpt lat="45.40015" lon="5.79915">
        <ele>1154.68</ele>
        <time>2013-02-23T07:23:32Z</time>
      </trkpt>
      <trkpt lat="45.40013" lon="5.7992">
        <ele>1151.32</ele>
        <time>2013-02-23T07:23:36Z</time>
      </trkpt>
      <trkpt lat="45.40014" lon="5.79922">
        <ele>1147.95</ele>
        <time>2013-02-23T07:23:40Z</time>
      </trkpt>
      <trkpt lat="45.40014" lon="5.79922">
        <ele>1146.03</ele>
        <time>2013-02-23T07:23:43Z</time>
      </trkpt>
      <trkpt lat="45.40015" lon="5.79919">
        <ele>1142.18</ele>
        <time>2013-02-23T07:23:49Z</time>
      </trkpt>
      <trkpt lat="45.40015" lon="5.7992">
        <ele>1142.18</ele>
        <time>2013-02-23T07:23:50Z</time>
      </trkpt>
      <trkpt lat="45.40012" lon="5.79921">
        <ele>1138.34</ele>
        <time>2013-02-23T07:24:01Z</time>
      </trkpt>
      <trkpt lat="45.40012" lon="5.79921">
        <ele>1134.97</ele>
        <time>2013-02-23T07:24:09Z</time>
      </trkpt>
      <trkpt lat="45.40012" lon="5.79922">
        <ele>1134.97</ele>
        <time>2013-02-23T07:24:10Z</time>
      </trkpt>
      <trkpt lat="45.40012" lon="5.79918">
        <ele>1132.57</ele>
        <time>2013-02-23T07:24:23Z</time>
      </trkpt>
      <trkpt lat="45.4001" lon="5.79921">
        <ele>1129.69</ele>
        <time>2013-02-23T07:24:43Z</time>
      </trkpt>
      <trkpt lat="45.4001" lon="5.79922">
        <ele>1129.21</ele>
        <time>2013-02-23T07:24:59Z</time>
      </trkpt>
      <trkpt lat="45.40009" lon="5.79925">
        <ele>1129.21</ele>
        <time>2013-02-23T07:25:05Z</time>
      </trkpt>
      <trkpt lat="45.40011" lon="5.79939">
        <ele>1130.17</ele>
        <time>2013-02-23T07:25:17Z</time>
      </trkpt>
      <trkpt lat="45.40007" lon="5.79953">
        <ele>1130.65</ele>
        <time>2013-02-23T07:25:31Z</time>
      </trkpt>
      <trkpt lat="45.40006" lon="5.79965">
        <ele>1131.13</ele>
        <time>2013-02-23T07:25:42Z</time>
      </trkpt>
      <trkpt lat="45.40007" lon="5.79985">
        <ele>1132.09</ele>
        <time>2013-02-23T07:25:57Z</time>
      </trkpt>
      <trkpt lat="45.40008" lon="5.79989">
        <ele>1132.57</ele>
        <time>2013-02-23T07:26:01Z</time>
      </trkpt>
      <trkpt lat="45.40014" lon="5.80007">
        <ele>1133.53</ele>
        <time>2013-02-23T07:26:14Z</time>
      </trkpt>
      <trkpt lat="45.40016" lon="5.80011">
        <ele>1133.53</ele>
        <time>2013-02-23T07:26:25Z</time>
      </trkpt>
      <trkpt lat="45.40019" lon="5.80018">
        <ele>1134.01</ele>
        <time>2013-02-23T07:26:37Z</time>
      </trkpt>
      <trkpt lat="45.40021" lon="5.80029">
        <ele>1136.42</ele>
        <time>2013-02-23T07:26:52Z</time>
      </trkpt>
      <trkpt lat="45.40015" lon="5.80034">
        <ele>1138.82</ele>
        <time>2013-02-23T07:27:04Z</time>
      </trkpt>
      <trkpt lat="45.40011" lon="5.80037">
        <ele>1140.74</ele>
        <time>2013-02-23T07:27:15Z</time>
      </trkpt>
      <trkpt lat="45.40014" lon="5.80047">
        <ele>1143.14</ele>
        <time>2013-02-23T07:27:29Z</time>
      </trkpt>
      <trkpt lat="45.40018" lon="5.8006">
        <ele>1145.07</ele>
        <time>2013-02-23T07:27:44Z</time>
      </trkpt>
      <trkpt lat="45.40025" lon="5.80076">
        <ele>1146.99</ele>
        <time>2013-02-23T07:27:59Z</time>
      </trkpt>
      <trkpt lat="45.40031" lon="5.8009">
        <ele>1148.43</ele>
        <time>2013-02-23T07:28:14Z</time>
      </trkpt>
      <trkpt lat="45.40028" lon="5.80104">
        <ele>1150.84</ele>
        <time>2013-02-23T07:28:29Z</time>
      </trkpt>
      <trkpt lat="45.40024" lon="5.80118">
        <ele>1152.76</ele>
        <time>2013-02-23T07:28:43Z</time>
      </trkpt>
      <trkpt lat="45.4002" lon="5.80131">
        <ele>1154.68</ele>
        <time>2013-02-23T07:28:57Z</time>
      </trkpt>
      <trkpt lat="45.40016" lon="5.80142">
        <ele>1157.56</ele>
        <time>2013-02-23T07:29:10Z</time>
      </trkpt>
      <trkpt lat="45.40013" lon="5.80151">
        <ele>1159.01</ele>
        <time>2013-02-23T07:29:23Z</time>
      </trkpt>
      <trkpt lat="45.40008" lon="5.80159">
        <ele>1162.37</ele>
        <time>2013-02-23T07:29:36Z</time>
      </trkpt>
      <trkpt lat="45.40004" lon="5.80167">
        <ele>1165.26</ele>
        <time>2013-02-23T07:29:51Z</time>
      </trkpt>
      <trkpt lat="45.39999" lon="5.80175">
        <ele>1168.14</ele>
        <time>2013-02-23T07:30:05Z</time>
      </trkpt>
      <trkpt lat="45.39994" lon="5.80182">
        <ele>1171.02</ele>
        <time>2013-02-23T07:30:18Z</time>
      </trkpt>
      <trkpt lat="45.39988" lon="5.80189">
        <ele>1172.95</ele>
        <time>2013-02-23T07:30:29Z</time>
      </trkpt>
      <trkpt lat="45.39981" lon="5.80197">
        <ele>1175.83</ele>
        <time>2013-02-23T07:30:43Z</time>
      </trkpt>
      <trkpt lat="45.39972" lon="5.80202">
        <ele>1178.23</ele>
        <time>2013-02-23T07:30:58Z</time>
      </trkpt>
      <trkpt lat="45.39963" lon="5.80205">
        <ele>1180.16</ele>
        <time>2013-02-23T07:31:13Z</time>
      </trkpt>
      <trkpt lat="45.39955" lon="5.80207">
        <ele>1183.04</ele>
        <time>2013-02-23T07:31:27Z</time>
      </trkpt>
      <trkpt lat="45.39947" lon="5.80209">
        <ele>1185.44</ele>
        <time>2013-02-23T07:31:41Z</time>
      </trkpt>
      <trkpt lat="45.3994" lon="5.80208">
        <ele>1187.37</ele>
        <time>2013-02-23T07:31:53Z</time>
      </trkpt>
      <trkpt lat="45.39929" lon="5.8021">
        <ele>1189.77</ele>
        <time>2013-02-23T07:32:07Z</time>
      </trkpt>
      <trkpt lat="45.39919" lon="5.80213">
        <ele>1192.17</ele>
        <time>2013-02-23T07:32:21Z</time>
      </trkpt>
      <trkpt lat="45.3991" lon="5.80219">
        <ele>1194.58</ele>
        <time>2013-02-23T07:32:35Z</time>
      </trkpt>
      <trkpt lat="45.39902" lon="5.80224">
        <ele>1197.46</ele>
        <time>2013-02-23T07:32:50Z</time>
      </trkpt>
      <trkpt lat="45.39892" lon="5.80227">
        <ele>1200.34</ele>
        <time>2013-02-23T07:33:05Z</time>
      </trkpt>
      <trkpt lat="45.39891" lon="5.80228">
        <ele>1200.82</ele>
        <time>2013-02-23T07:33:07Z</time>
      </trkpt>
      <trkpt lat="45.39881" lon="5.80232">
        <ele>1202.75</ele>
        <time>2013-02-23T07:33:22Z</time>
      </trkpt>
      <trkpt lat="45.39875" lon="5.80236">
        <ele>1205.15</ele>
        <time>2013-02-23T07:33:36Z</time>
      </trkpt>
      <trkpt lat="45.39867" lon="5.80242">
        <ele>1207.07</ele>
        <time>2013-02-23T07:33:48Z</time>
      </trkpt>
      <trkpt lat="45.39867" lon="5.80243">
        <ele>1207.55</ele>
        <time>2013-02-23T07:33:50Z</time>
      </trkpt>
      <trkpt lat="45.39859" lon="5.80252">
        <ele>1210.44</ele>
        <time>2013-02-23T07:34:05Z</time>
      </trkpt>
      <trkpt lat="45.39852" lon="5.80259">
        <ele>1212.36</ele>
        <time>2013-02-23T07:34:16Z</time>
      </trkpt>
      <trkpt lat="45.39849" lon="5.80261">
        <ele>1213.32</ele>
        <time>2013-02-23T07:34:21Z</time>
      </trkpt>
      <trkpt lat="45.39841" lon="5.80269">
        <ele>1215.24</ele>
        <time>2013-02-23T07:34:36Z</time>
      </trkpt>
      <trkpt lat="45.39838" lon="5.80276">
        <ele>1217.65</ele>
        <time>2013-02-23T07:34:47Z</time>
      </trkpt>
      <trkpt lat="45.39834" lon="5.80274">
        <ele>1219.57</ele>
        <time>2013-02-23T07:35:01Z</time>
      </trkpt>
      <trkpt lat="45.39827" lon="5.80272">
        <ele>1222.45</ele>
        <time>2013-02-23T07:35:15Z</time>
      </trkpt>
      <trkpt lat="45.3982" lon="5.8027">
        <ele>1224.38</ele>
        <time>2013-02-23T07:35:27Z</time>
      </trkpt>
      <trkpt lat="45.39812" lon="5.80271">
        <ele>1226.78</ele>
        <time>2013-02-23T07:35:39Z</time>
      </trkpt>
      <trkpt lat="45.39803" lon="5.80271">
        <ele>1228.7</ele>
        <time>2013-02-23T07:35:53Z</time>
      </trkpt>
      <trkpt lat="45.39794" lon="5.8027">
        <ele>1231.59</ele>
        <time>2013-02-23T07:36:07Z</time>
      </trkpt>
      <trkpt lat="45.39785" lon="5.80271">
        <ele>1233.99</ele>
        <time>2013-02-23T07:36:21Z</time>
      </trkpt>
      <trkpt lat="45.39774" lon="5.80273">
        <ele>1236.39</ele>
        <time>2013-02-23T07:36:36Z</time>
      </trkpt>
      <trkpt lat="45.39763" lon="5.80275">
        <ele>1238.32</ele>
        <time>2013-02-23T07:36:50Z</time>
      </trkpt>
      <trkpt lat="45.39761" lon="5.80276">
        <ele>1238.8</ele>
        <time>2013-02-23T07:36:53Z</time>
      </trkpt>
      <trkpt lat="45.39748" lon="5.80275">
        <ele>1239.28</ele>
        <time>2013-02-23T07:37:08Z</time>
      </trkpt>
      <trkpt lat="45.39737" lon="5.80277">
        <ele>1240.24</ele>
        <time>2013-02-23T07:37:21Z</time>
      </trkpt>
      <trkpt lat="45.39721" lon="5.80281">
        <ele>1241.2</ele>
        <time>2013-02-23T07:37:37Z</time>
      </trkpt>
      <trkpt lat="45.39709" lon="5.80286">
        <ele>1241.68</ele>
        <time>2013-02-23T07:37:49Z</time>
      </trkpt>
      <trkpt lat="45.39702" lon="5.80288">
        <ele>1242.64</ele>
        <time>2013-02-23T07:37:57Z</time>
      </trkpt>
      <trkpt lat="45.3969" lon="5.8029">
        <ele>1243.6</ele>
        <time>2013-02-23T07:38:10Z</time>
      </trkpt>
      <trkpt lat="45.39678" lon="5.80294">
        <ele>1245.04</ele>
        <time>2013-02-23T07:38:24Z</time>
      </trkpt>
      <trkpt lat="45.39666" lon="5.80297">
        <ele>1246.49</ele>
        <time>2013-02-23T07:38:37Z</time>
      </trkpt>
      <trkpt lat="45.39663" lon="5.803">
        <ele>1247.45</ele>
        <time>2013-02-23T07:38:50Z</time>
      </trkpt>
      <trkpt lat="45.39663" lon="5.80303">
        <ele>1245.53</ele>
        <time>2013-02-23T07:39:14Z</time>
      </trkpt>
      <trkpt lat="45.39663" lon="5.80298">
        <ele>1248.89</ele>
        <time>2013-02-23T07:39:26Z</time>
      </trkpt>
      <trkpt lat="45.39663" lon="5.80297">
        <ele>1245.53</ele>
        <time>2013-02-23T07:39:27Z</time>
      </trkpt>
      <trkpt lat="45.39663" lon="5.80298">
        <ele>1245.53</ele>
        <time>2013-02-23T07:39:47Z</time>
      </trkpt>
      <trkpt lat="45.39662" lon="5.80299">
        <ele>1246.49</ele>
        <time>2013-02-23T07:39:53Z</time>
      </trkpt>
      <trkpt lat="45.39661" lon="5.80297">
        <ele>1246.97</ele>
        <time>2013-02-23T07:40:06Z</time>
      </trkpt>
      <trkpt lat="45.39656" lon="5.80299">
        <ele>1247.93</ele>
        <time>2013-02-23T07:40:19Z</time>
      </trkpt>
      <trkpt lat="45.39646" lon="5.80304">
        <ele>1250.81</ele>
        <time>2013-02-23T07:40:34Z</time>
      </trkpt>
      <trkpt lat="45.39638" lon="5.80306">
        <ele>1253.22</ele>
        <time>2013-02-23T07:40:47Z</time>
      </trkpt>
      <trkpt lat="45.39628" lon="5.80307">
        <ele>1254.66</ele>
        <time>2013-02-23T07:41:02Z</time>
      </trkpt>
      <trkpt lat="45.39618" lon="5.80308">
        <ele>1256.58</ele>
        <time>2013-02-23T07:41:16Z</time>
      </trkpt>
      <trkpt lat="45.39608" lon="5.80311">
        <ele>1258.98</ele>
        <time>2013-02-23T07:41:29Z</time>
      </trkpt>
      <trkpt lat="45.39604" lon="5.80311">
        <ele>1259.94</ele>
        <time>2013-02-23T07:41:44Z</time>
      </trkpt>
      <trkpt lat="45.396" lon="5.80313">
        <ele>1261.39</ele>
        <time>2013-02-23T07:41:58Z</time>
      </trkpt>
      <trkpt lat="45.39591" lon="5.80313">
        <ele>1264.27</ele>
        <time>2013-02-23T07:42:13Z</time>
      </trkpt>
      <trkpt lat="45.39584" lon="5.80318">
        <ele>1266.67</ele>
        <time>2013-02-23T07:42:26Z</time>
      </trkpt>
      <trkpt lat="45.39578" lon="5.80323">
        <ele>1269.08</ele>
        <time>2013-02-23T07:42:38Z</time>
      </trkpt>
      <trkpt lat="45.39578" lon="5.8032">
        <ele>1269.56</ele>
        <time>2013-02-23T07:42:59Z</time>
      </trkpt>
      <trkpt lat="45.39573" lon="5.80328">
        <ele>1271</ele>
        <time>2013-02-23T07:43:10Z</time>
      </trkpt>
      <trkpt lat="45.39567" lon="5.80332">
        <ele>1273.88</ele>
        <time>2013-02-23T07:43:24Z</time>
      </trkpt>
      <trkpt lat="45.39562" lon="5.80333">
        <ele>1276.29</ele>
        <time>2013-02-23T07:43:35Z</time>
      </trkpt>
      <trkpt lat="45.39554" lon="5.80336">
        <ele>1278.69</ele>
        <time>2013-02-23T07:43:48Z</time>
      </trkpt>
      <trkpt lat="45.39547" lon="5.8034">
        <ele>1281.57</ele>
        <time>2013-02-23T07:44:02Z</time>
      </trkpt>
      <trkpt lat="45.39539" lon="5.80347">
        <ele>1284.46</ele>
        <time>2013-02-23T07:44:16Z</time>
      </trkpt>
      <trkpt lat="45.39534" lon="5.80352">
        <ele>1286.86</ele>
        <time>2013-02-23T07:44:28Z</time>
      </trkpt>
      <trkpt lat="45.39526" lon="5.80352">
        <ele>1289.75</ele>
        <time>2013-02-23T07:44:43Z</time>
      </trkpt>
      <trkpt lat="45.39519" lon="5.80352">
        <ele>1292.63</ele>
        <time>2013-02-23T07:44:56Z</time>
      </trkpt>
      <trkpt lat="45.39511" lon="5.80352">
        <ele>1295.03</ele>
        <time>2013-02-23T07:45:08Z</time>
      </trkpt>
      <trkpt lat="45.395" lon="5.80353">
        <ele>1297.92</ele>
        <time>2013-02-23T07:45:21Z</time>
      </trkpt>
      <trkpt lat="45.39494" lon="5.80354">
        <ele>1300.8</ele>
        <time>2013-02-23T07:45:35Z</time>
      </trkpt>
      <trkpt lat="45.39486" lon="5.80354">
        <ele>1302.72</ele>
        <time>2013-02-23T07:45:47Z</time>
      </trkpt>
      <trkpt lat="45.3948" lon="5.80353">
        <ele>1305.61</ele>
        <time>2013-02-23T07:46:01Z</time>
      </trkpt>
      <trkpt lat="45.39474" lon="5.80352">
        <ele>1308.01</ele>
        <time>2013-02-23T07:46:12Z</time>
      </trkpt>
      <trkpt lat="45.39467" lon="5.80352">
        <ele>1310.9</ele>
        <time>2013-02-23T07:46:29Z</time>
      </trkpt>
      <trkpt lat="45.39459" lon="5.80352">
        <ele>1313.78</ele>
        <time>2013-02-23T07:46:43Z</time>
      </trkpt>
      <trkpt lat="45.3945" lon="5.80351">
        <ele>1316.66</ele>
        <time>2013-02-23T07:46:57Z</time>
      </trkpt>
      <trkpt lat="45.39445" lon="5.80351">
        <ele>1319.07</ele>
        <time>2013-02-23T07:47:10Z</time>
      </trkpt>
      <trkpt lat="45.39438" lon="5.8035">
        <ele>1321.47</ele>
        <time>2013-02-23T07:47:24Z</time>
      </trkpt>
      <trkpt lat="45.39429" lon="5.8035">
        <ele>1323.87</ele>
        <time>2013-02-23T07:47:37Z</time>
      </trkpt>
      <trkpt lat="45.39425" lon="5.80347">
        <ele>1326.76</ele>
        <time>2013-02-23T07:47:50Z</time>
      </trkpt>
      <trkpt lat="45.3942" lon="5.80343">
        <ele>1329.64</ele>
        <time>2013-02-23T07:48:03Z</time>
      </trkpt>
      <trkpt lat="45.39412" lon="5.80344">
        <ele>1332.04</ele>
        <time>2013-02-23T07:48:16Z</time>
      </trkpt>
      <trkpt lat="45.39408" lon="5.80339">
        <ele>1334.45</ele>
        <time>2013-02-23T07:48:30Z</time>
      </trkpt>
      <trkpt lat="45.394" lon="5.80334">
        <ele>1336.37</ele>
        <time>2013-02-23T07:48:43Z</time>
      </trkpt>
      <trkpt lat="45.39393" lon="5.80332">
        <ele>1338.77</ele>
        <time>2013-02-23T07:48:57Z</time>
      </trkpt>
      <trkpt lat="45.39381" lon="5.80336">
        <ele>1341.66</ele>
        <time>2013-02-23T07:49:12Z</time>
      </trkpt>
      <trkpt lat="45.39372" lon="5.8034">
        <ele>1344.54</ele>
        <time>2013-02-23T07:49:24Z</time>
      </trkpt>
      <trkpt lat="45.39365" lon="5.80346">
        <ele>1347.43</ele>
        <time>2013-02-23T07:49:38Z</time>
      </trkpt>
      <trkpt lat="45.39361" lon="5.80354">
        <ele>1350.31</ele>
        <time>2013-02-23T07:49:52Z</time>
      </trkpt>
      <trkpt lat="45.3936" lon="5.80362">
        <ele>1352.71</ele>
        <time>2013-02-23T07:50:05Z</time>
      </trkpt>
      <trkpt lat="45.39361" lon="5.80373">
        <ele>1355.6</ele>
        <time>2013-02-23T07:50:19Z</time>
      </trkpt>
      <trkpt lat="45.39362" lon="5.80383">
        <ele>1357.52</ele>
        <time>2013-02-23T07:50:31Z</time>
      </trkpt>
      <trkpt lat="45.39363" lon="5.80398">
        <ele>1360.4</ele>
        <time>2013-02-23T07:50:45Z</time>
      </trkpt>
      <trkpt lat="45.39364" lon="5.80406">
        <ele>1361.36</ele>
        <time>2013-02-23T07:50:54Z</time>
      </trkpt>
      <trkpt lat="45.39366" lon="5.80418">
        <ele>1363.29</ele>
        <time>2013-02-23T07:51:06Z</time>
      </trkpt>
      <trkpt lat="45.39369" lon="5.80426">
        <ele>1364.25</ele>
        <time>2013-02-23T07:51:17Z</time>
      </trkpt>
      <trkpt lat="45.39371" lon="5.80438">
        <ele>1366.17</ele>
        <time>2013-02-23T07:51:29Z</time>
      </trkpt>
      <trkpt lat="45.39374" lon="5.80453">
        <ele>1368.57</ele>
        <time>2013-02-23T07:51:44Z</time>
      </trkpt>
      <trkpt lat="45.39377" lon="5.80462">
        <ele>1370.02</ele>
        <time>2013-02-23T07:51:54Z</time>
      </trkpt>
      <trkpt lat="45.39381" lon="5.80473">
        <ele>1371.46</ele>
        <time>2013-02-23T07:52:05Z</time>
      </trkpt>
      <trkpt lat="45.39385" lon="5.80484">
        <ele>1373.86</ele>
        <time>2013-02-23T07:52:19Z</time>
      </trkpt>
      <trkpt lat="45.39387" lon="5.80493">
        <ele>1375.78</ele>
        <time>2013-02-23T07:52:31Z</time>
      </trkpt>
      <trkpt lat="45.3939" lon="5.80505">
        <ele>1378.19</ele>
        <time>2013-02-23T07:52:44Z</time>
      </trkpt>
      <trkpt lat="45.39395" lon="5.8052">
        <ele>1380.11</ele>
        <time>2013-02-23T07:52:59Z</time>
      </trkpt>
      <trkpt lat="45.39399" lon="5.80531">
        <ele>1382.03</ele>
        <time>2013-02-23T07:53:12Z</time>
      </trkpt>
      <trkpt lat="45.394" lon="5.80539">
        <ele>1384.92</ele>
        <time>2013-02-23T07:53:24Z</time>
      </trkpt>
      <trkpt lat="45.39403" lon="5.80546">
        <ele>1387.32</ele>
        <time>2013-02-23T07:53:35Z</time>
      </trkpt>
      <trkpt lat="45.39406" lon="5.80553">
        <ele>1387.8</ele>
        <time>2013-02-23T07:53:43Z</time>
      </trkpt>
      <trkpt lat="45.39411" lon="5.80564">
        <ele>1389.24</ele>
        <time>2013-02-23T07:53:56Z</time>
      </trkpt>
      <trkpt lat="45.39416" lon="5.80574">
        <ele>1391.17</ele>
        <time>2013-02-23T07:54:08Z</time>
      </trkpt>
      <trkpt lat="45.3942" lon="5.8058">
        <ele>1394.05</ele>
        <time>2013-02-23T07:54:21Z</time>
      </trkpt>
      <trkpt lat="45.39423" lon="5.80588">
        <ele>1395.97</ele>
        <time>2013-02-23T07:54:33Z</time>
      </trkpt>
      <trkpt lat="45.39427" lon="5.80595">
        <ele>1397.41</ele>
        <time>2013-02-23T07:54:45Z</time>
      </trkpt>
      <trkpt lat="45.39431" lon="5.806">
        <ele>1398.37</ele>
        <time>2013-02-23T07:54:53Z</time>
      </trkpt>
      <trkpt lat="45.39433" lon="5.80605">
        <ele>1399.82</ele>
        <time>2013-02-23T07:55:03Z</time>
      </trkpt>
      <trkpt lat="45.39438" lon="5.80609">
        <ele>1401.26</ele>
        <time>2013-02-23T07:55:16Z</time>
      </trkpt>
      <trkpt lat="45.39443" lon="5.80615">
        <ele>1402.7</ele>
        <time>2013-02-23T07:55:27Z</time>
      </trkpt>
      <trkpt lat="45.39449" lon="5.80621">
        <ele>1404.62</ele>
        <time>2013-02-23T07:55:38Z</time>
      </trkpt>
      <trkpt lat="45.39451" lon="5.8063">
        <ele>1407.03</ele>
        <time>2013-02-23T07:55:49Z</time>
      </trkpt>
      <trkpt lat="45.39456" lon="5.80634">
        <ele>1407.99</ele>
        <time>2013-02-23T07:55:59Z</time>
      </trkpt>
      <trkpt lat="45.39461" lon="5.8064">
        <ele>1409.43</ele>
        <time>2013-02-23T07:56:10Z</time>
      </trkpt>
      <trkpt lat="45.39465" lon="5.80641">
        <ele>1410.87</ele>
        <time>2013-02-23T07:56:20Z</time>
      </trkpt>
      <trkpt lat="45.39471" lon="5.80645">
        <ele>1412.79</ele>
        <time>2013-02-23T07:56:31Z</time>
      </trkpt>
      <trkpt lat="45.39476" lon="5.80647">
        <ele>1415.2</ele>
        <time>2013-02-23T07:56:43Z</time>
      </trkpt>
      <trkpt lat="45.39483" lon="5.80652">
        <ele>1417.12</ele>
        <time>2013-02-23T07:56:56Z</time>
      </trkpt>
      <trkpt lat="45.39488" lon="5.80657">
        <ele>1419.04</ele>
        <time>2013-02-23T07:57:08Z</time>
      </trkpt>
      <trkpt lat="45.39493" lon="5.80663">
        <ele>1420.97</ele>
        <time>2013-02-23T07:57:20Z</time>
      </trkpt>
      <trkpt lat="45.39497" lon="5.80669">
        <ele>1423.85</ele>
        <time>2013-02-23T07:57:33Z</time>
      </trkpt>
      <trkpt lat="45.39498" lon="5.80671">
        <ele>1424.33</ele>
        <time>2013-02-23T07:57:36Z</time>
      </trkpt>
      <trkpt lat="45.39502" lon="5.8068">
        <ele>1426.25</ele>
        <time>2013-02-23T07:57:48Z</time>
      </trkpt>
      <trkpt lat="45.39506" lon="5.80688">
        <ele>1429.14</ele>
        <time>2013-02-23T07:58:01Z</time>
      </trkpt>
      <trkpt lat="45.39511" lon="5.80696">
        <ele>1431.06</ele>
        <time>2013-02-23T07:58:13Z</time>
      </trkpt>
      <trkpt lat="45.39516" lon="5.80704">
        <ele>1433.46</ele>
        <time>2013-02-23T07:58:25Z</time>
      </trkpt>
      <trkpt lat="45.3952" lon="5.80712">
        <ele>1435.87</ele>
        <time>2013-02-23T07:58:36Z</time>
      </trkpt>
      <trkpt lat="45.39515" lon="5.80719">
        <ele>1438.27</ele>
        <time>2013-02-23T07:58:49Z</time>
      </trkpt>
      <trkpt lat="45.39514" lon="5.80725">
        <ele>1440.19</ele>
        <time>2013-02-23T07:59:03Z</time>
      </trkpt>
      <trkpt lat="45.3951" lon="5.80733">
        <ele>1442.11</ele>
        <time>2013-02-23T07:59:14Z</time>
      </trkpt>
      <trkpt lat="45.39507" lon="5.80745">
        <ele>1444.52</ele>
        <time>2013-02-23T07:59:28Z</time>
      </trkpt>
      <trkpt lat="45.39504" lon="5.80756">
        <ele>1446.92</ele>
        <time>2013-02-23T07:59:41Z</time>
      </trkpt>
      <trkpt lat="45.395" lon="5.8077">
        <ele>1447.88</ele>
        <time>2013-02-23T07:59:55Z</time>
      </trkpt>
      <trkpt lat="45.39498" lon="5.80781">
        <ele>1450.77</ele>
        <time>2013-02-23T08:00:09Z</time>
      </trkpt>
      <trkpt lat="45.395" lon="5.8079">
        <ele>1452.21</ele>
        <time>2013-02-23T08:00:18Z</time>
      </trkpt>
      <trkpt lat="45.395" lon="5.80804">
        <ele>1453.65</ele>
        <time>2013-02-23T08:00:30Z</time>
      </trkpt>
      <trkpt lat="45.3949" lon="5.80819">
        <ele>1455.57</ele>
        <time>2013-02-23T08:00:45Z</time>
      </trkpt>
      <trkpt lat="45.39488" lon="5.80824">
        <ele>1455.57</ele>
        <time>2013-02-23T08:00:57Z</time>
      </trkpt>
      <trkpt lat="45.39486" lon="5.80827">
        <ele>1455.57</ele>
        <time>2013-02-23T08:01:20Z</time>
      </trkpt>
      <trkpt lat="45.39486" lon="5.80828">
        <ele>1455.09</ele>
        <time>2013-02-23T08:01:47Z</time>
      </trkpt>
      <trkpt lat="45.39473" lon="5.80828">
        <ele>1456.05</ele>
        <time>2013-02-23T08:01:58Z</time>
      </trkpt>
      <trkpt lat="45.3946" lon="5.80833">
        <ele>1457.5</ele>
        <time>2013-02-23T08:02:12Z</time>
      </trkpt>
      <trkpt lat="45.3945" lon="5.8084">
        <ele>1458.46</ele>
        <time>2013-02-23T08:02:27Z</time>
      </trkpt>
      <trkpt lat="45.39443" lon="5.80851">
        <ele>1460.38</ele>
        <time>2013-02-23T08:02:43Z</time>
      </trkpt>
      <trkpt lat="45.3943" lon="5.80863">
        <ele>1460.86</ele>
        <time>2013-02-23T08:02:57Z</time>
      </trkpt>
      <trkpt lat="45.39419" lon="5.80864">
        <ele>1462.78</ele>
        <time>2013-02-23T08:03:13Z</time>
      </trkpt>
      <trkpt lat="45.39411" lon="5.80871">
        <ele>1464.71</ele>
        <time>2013-02-23T08:03:25Z</time>
      </trkpt>
      <trkpt lat="45.39404" lon="5.80872">
        <ele>1467.11</ele>
        <time>2013-02-23T08:03:38Z</time>
      </trkpt>
      <trkpt lat="45.39399" lon="5.80871">
        <ele>1469.03</ele>
        <time>2013-02-23T08:03:49Z</time>
      </trkpt>
      <trkpt lat="45.39389" lon="5.80876">
        <ele>1470.95</ele>
        <time>2013-02-23T08:04:02Z</time>
      </trkpt>
      <trkpt lat="45.39378" lon="5.80876">
        <ele>1473.84</ele>
        <time>2013-02-23T08:04:16Z</time>
      </trkpt>
      <trkpt lat="45.39368" lon="5.80878">
        <ele>1475.76</ele>
        <time>2013-02-23T08:04:29Z</time>
      </trkpt>
      <trkpt lat="45.39359" lon="5.80879">
        <ele>1478.16</ele>
        <time>2013-02-23T08:04:42Z</time>
      </trkpt>
      <trkpt lat="45.39351" lon="5.80878">
        <ele>1480.09</ele>
        <time>2013-02-23T08:04:52Z</time>
      </trkpt>
      <trkpt lat="45.39343" lon="5.80878">
        <ele>1482.49</ele>
        <time>2013-02-23T08:05:05Z</time>
      </trkpt>
      <trkpt lat="45.39339" lon="5.80874">
        <ele>1483.93</ele>
        <time>2013-02-23T08:05:19Z</time>
      </trkpt>
      <trkpt lat="45.39328" lon="5.80873">
        <ele>1486.82</ele>
        <time>2013-02-23T08:05:34Z</time>
      </trkpt>
      <trkpt lat="45.39321" lon="5.80872">
        <ele>1488.26</ele>
        <time>2013-02-23T08:05:46Z</time>
      </trkpt>
      <trkpt lat="45.39313" lon="5.80873">
        <ele>1490.18</ele>
        <time>2013-02-23T08:05:58Z</time>
      </trkpt>
      <trkpt lat="45.39305" lon="5.80874">
        <ele>1492.58</ele>
        <time>2013-02-23T08:06:12Z</time>
      </trkpt>
      <trkpt lat="45.39299" lon="5.8087">
        <ele>1494.51</ele>
        <time>2013-02-23T08:06:24Z</time>
      </trkpt>
      <trkpt lat="45.39297" lon="5.80865">
        <ele>1496.43</ele>
        <time>2013-02-23T08:06:35Z</time>
      </trkpt>
      <trkpt lat="45.39289" lon="5.80861">
        <ele>1499.31</ele>
        <time>2013-02-23T08:06:51Z</time>
      </trkpt>
      <trkpt lat="45.39284" lon="5.8086">
        <ele>1501.24</ele>
        <time>2013-02-23T08:07:02Z</time>
      </trkpt>
      <trkpt lat="45.39281" lon="5.80852">
        <ele>1503.64</ele>
        <time>2013-02-23T08:07:16Z</time>
      </trkpt>
      <trkpt lat="45.39273" lon="5.80843">
        <ele>1506.52</ele>
        <time>2013-02-23T08:07:32Z</time>
      </trkpt>
      <trkpt lat="45.39267" lon="5.80836">
        <ele>1508.45</ele>
        <time>2013-02-23T08:07:44Z</time>
      </trkpt>
      <trkpt lat="45.39261" lon="5.8083">
        <ele>1511.33</ele>
        <time>2013-02-23T08:07:57Z</time>
      </trkpt>
      <trkpt lat="45.39258" lon="5.80824">
        <ele>1513.73</ele>
        <time>2013-02-23T08:08:09Z</time>
      </trkpt>
      <trkpt lat="45.39254" lon="5.80817">
        <ele>1516.14</ele>
        <time>2013-02-23T08:08:22Z</time>
      </trkpt>
      <trkpt lat="45.39249" lon="5.80812">
        <ele>1518.54</ele>
        <time>2013-02-23T08:08:35Z</time>
      </trkpt>
      <trkpt lat="45.39242" lon="5.80808">
        <ele>1521.42</ele>
        <time>2013-02-23T08:08:48Z</time>
      </trkpt>
      <trkpt lat="45.39236" lon="5.80804">
        <ele>1523.35</ele>
        <time>2013-02-23T08:08:59Z</time>
      </trkpt>
      <trkpt lat="45.39231" lon="5.80803">
        <ele>1525.75</ele>
        <time>2013-02-23T08:09:10Z</time>
      </trkpt>
      <trkpt lat="45.39226" lon="5.8081">
        <ele>1526.71</ele>
        <time>2013-02-23T08:09:25Z</time>
      </trkpt>
      <trkpt lat="45.39224" lon="5.80809">
        <ele>1527.19</ele>
        <time>2013-02-23T08:09:41Z</time>
      </trkpt>
      <trkpt lat="45.3922" lon="5.80809">
        <ele>1527.19</ele>
        <time>2013-02-23T08:10:01Z</time>
      </trkpt>
      <trkpt lat="45.39217" lon="5.8081">
        <ele>1525.75</ele>
        <time>2013-02-23T08:10:20Z</time>
      </trkpt>
      <trkpt lat="45.39219" lon="5.80812">
        <ele>1527.19</ele>
        <time>2013-02-23T08:10:35Z</time>
      </trkpt>
      <trkpt lat="45.39214" lon="5.80814">
        <ele>1526.71</ele>
        <time>2013-02-23T08:11:02Z</time>
      </trkpt>
      <trkpt lat="45.39217" lon="5.8081">
        <ele>1526.71</ele>
        <time>2013-02-23T08:11:29Z</time>
      </trkpt>
      <trkpt lat="45.39212" lon="5.80813">
        <ele>1528.15</ele>
        <time>2013-02-23T08:11:40Z</time>
      </trkpt>
      <trkpt lat="45.39207" lon="5.80816">
        <ele>1529.11</ele>
        <time>2013-02-23T08:11:57Z</time>
      </trkpt>
      <trkpt lat="45.39208" lon="5.80811">
        <ele>1530.56</ele>
        <time>2013-02-23T08:12:08Z</time>
      </trkpt>
      <trkpt lat="45.39209" lon="5.80798">
        <ele>1531.52</ele>
        <time>2013-02-23T08:12:20Z</time>
      </trkpt>
      <trkpt lat="45.39211" lon="5.80788">
        <ele>1533.44</ele>
        <time>2013-02-23T08:12:33Z</time>
      </trkpt>
      <trkpt lat="45.39207" lon="5.80782">
        <ele>1535.36</ele>
        <time>2013-02-23T08:12:46Z</time>
      </trkpt>
      <trkpt lat="45.39204" lon="5.80776">
        <ele>1537.77</ele>
        <time>2013-02-23T08:12:59Z</time>
      </trkpt>
      <trkpt lat="45.39205" lon="5.80767">
        <ele>1539.21</ele>
        <time>2013-02-23T08:13:10Z</time>
      </trkpt>
      <trkpt lat="45.3921" lon="5.80756">
        <ele>1542.09</ele>
        <time>2013-02-23T08:13:24Z</time>
      </trkpt>
      <trkpt lat="45.39209" lon="5.80752">
        <ele>1544.5</ele>
        <time>2013-02-23T08:13:38Z</time>
      </trkpt>
      <trkpt lat="45.392" lon="5.80757">
        <ele>1546.42</ele>
        <time>2013-02-23T08:13:52Z</time>
      </trkpt>
      <trkpt lat="45.39199" lon="5.80758">
        <ele>1546.9</ele>
        <time>2013-02-23T08:13:54Z</time>
      </trkpt>
      <trkpt lat="45.39194" lon="5.80761">
        <ele>1547.38</ele>
        <time>2013-02-23T08:14:00Z</time>
      </trkpt>
      <trkpt lat="45.39183" lon="5.8077">
        <ele>1549.3</ele>
        <time>2013-02-23T08:14:15Z</time>
      </trkpt>
      <trkpt lat="45.39182" lon="5.80768">
        <ele>1550.74</ele>
        <time>2013-02-23T08:14:26Z</time>
      </trkpt>
      <trkpt lat="45.39182" lon="5.80762">
        <ele>1552.19</ele>
        <time>2013-02-23T08:14:42Z</time>
      </trkpt>
      <trkpt lat="45.39182" lon="5.80754">
        <ele>1554.59</ele>
        <time>2013-02-23T08:14:55Z</time>
      </trkpt>
      <trkpt lat="45.39182" lon="5.80749">
        <ele>1556.51</ele>
        <time>2013-02-23T08:15:07Z</time>
      </trkpt>
      <trkpt lat="45.39176" lon="5.80749">
        <ele>1557.95</ele>
        <time>2013-02-23T08:15:18Z</time>
      </trkpt>
      <trkpt lat="45.39168" lon="5.80753">
        <ele>1559.88</ele>
        <time>2013-02-23T08:15:31Z</time>
      </trkpt>
      <trkpt lat="45.39166" lon="5.8075">
        <ele>1561.32</ele>
        <time>2013-02-23T08:15:42Z</time>
      </trkpt>
      <trkpt lat="45.39168" lon="5.80742">
        <ele>1563.24</ele>
        <time>2013-02-23T08:15:55Z</time>
      </trkpt>
      <trkpt lat="45.39163" lon="5.80746">
        <ele>1565.16</ele>
        <time>2013-02-23T08:16:05Z</time>
      </trkpt>
      <trkpt lat="45.39156" lon="5.80748">
        <ele>1568.05</ele>
        <time>2013-02-23T08:16:18Z</time>
      </trkpt>
      <trkpt lat="45.39151" lon="5.80747">
        <ele>1570.45</ele>
        <time>2013-02-23T08:16:30Z</time>
      </trkpt>
      <trkpt lat="45.3914" lon="5.80749">
        <ele>1571.89</ele>
        <time>2013-02-23T08:16:44Z</time>
      </trkpt>
      <trkpt lat="45.39129" lon="5.80751">
        <ele>1573.33</ele>
        <time>2013-02-23T08:16:59Z</time>
      </trkpt>
      <trkpt lat="45.39122" lon="5.80753">
        <ele>1574.3</ele>
        <time>2013-02-23T08:17:14Z</time>
      </trkpt>
      <trkpt lat="45.39113" lon="5.80756">
        <ele>1576.22</ele>
        <time>2013-02-23T08:17:27Z</time>
      </trkpt>
      <trkpt lat="45.39107" lon="5.80757">
        <ele>1578.62</ele>
        <time>2013-02-23T08:17:40Z</time>
      </trkpt>
      <trkpt lat="45.39105" lon="5.80757">
        <ele>1579.1</ele>
        <time>2013-02-23T08:17:43Z</time>
      </trkpt>
      <trkpt lat="45.39107" lon="5.8075">
        <ele>1581.03</ele>
        <time>2013-02-23T08:17:54Z</time>
      </trkpt>
      <trkpt lat="45.39106" lon="5.80749">
        <ele>1581.51</ele>
        <time>2013-02-23T08:18:13Z</time>
      </trkpt>
      <trkpt lat="45.39101" lon="5.80748">
        <ele>1583.43</ele>
        <time>2013-02-23T08:18:25Z</time>
      </trkpt>
      <trkpt lat="45.39099" lon="5.8075">
        <ele>1583.91</ele>
        <time>2013-02-23T08:18:36Z</time>
      </trkpt>
      <trkpt lat="45.39094" lon="5.80754">
        <ele>1584.87</ele>
        <time>2013-02-23T08:18:52Z</time>
      </trkpt>
      <trkpt lat="45.39091" lon="5.80755">
        <ele>1586.31</ele>
        <time>2013-02-23T08:19:05Z</time>
      </trkpt>
      <trkpt lat="45.39084" lon="5.80757">
        <ele>1587.27</ele>
        <time>2013-02-23T08:19:18Z</time>
      </trkpt>
      <trkpt lat="45.39086" lon="5.80752">
        <ele>1588.24</ele>
        <time>2013-02-23T08:19:28Z</time>
      </trkpt>
      <trkpt lat="45.39087" lon="5.80744">
        <ele>1590.64</ele>
        <time>2013-02-23T08:19:40Z</time>
      </trkpt>
      <trkpt lat="45.39085" lon="5.80746">
        <ele>1591.12</ele>
        <time>2013-02-23T08:19:44Z</time>
      </trkpt>
      <trkpt lat="45.39076" lon="5.80751">
        <ele>1592.56</ele>
        <time>2013-02-23T08:19:59Z</time>
      </trkpt>
      <trkpt lat="45.39079" lon="5.80742">
        <ele>1594.48</ele>
        <time>2013-02-23T08:20:11Z</time>
      </trkpt>
      <trkpt lat="45.39083" lon="5.80732">
        <ele>1596.89</ele>
        <time>2013-02-23T08:20:25Z</time>
      </trkpt>
      <trkpt lat="45.39075" lon="5.80736">
        <ele>1598.33</ele>
        <time>2013-02-23T08:20:38Z</time>
      </trkpt>
      <trkpt lat="45.39073" lon="5.80738">
        <ele>1598.81</ele>
        <time>2013-02-23T08:20:42Z</time>
      </trkpt>
      <trkpt lat="45.39068" lon="5.80741">
        <ele>1599.77</ele>
        <time>2013-02-23T08:20:57Z</time>
      </trkpt>
      <trkpt lat="45.39069" lon="5.80732">
        <ele>1602.17</ele>
        <time>2013-02-23T08:21:11Z</time>
      </trkpt>
      <trkpt lat="45.39072" lon="5.80727">
        <ele>1604.1</ele>
        <time>2013-02-23T08:21:24Z</time>
      </trkpt>
      <trkpt lat="45.39067" lon="5.8073">
        <ele>1605.06</ele>
        <time>2013-02-23T08:21:31Z</time>
      </trkpt>
      <trkpt lat="45.39058" lon="5.80736">
        <ele>1607.94</ele>
        <time>2013-02-23T08:21:46Z</time>
      </trkpt>
      <trkpt lat="45.39052" lon="5.8074">
        <ele>1610.35</ele>
        <time>2013-02-23T08:22:00Z</time>
      </trkpt>
      <trkpt lat="45.39048" lon="5.80738">
        <ele>1611.31</ele>
        <time>2013-02-23T08:22:12Z</time>
      </trkpt>
      <trkpt lat="45.39053" lon="5.8073">
        <ele>1612.75</ele>
        <time>2013-02-23T08:22:24Z</time>
      </trkpt>
      <trkpt lat="45.39053" lon="5.80726">
        <ele>1613.71</ele>
        <time>2013-02-23T08:22:35Z</time>
      </trkpt>
      <trkpt lat="45.39045" lon="5.8073">
        <ele>1615.63</ele>
        <time>2013-02-23T08:22:47Z</time>
      </trkpt>
      <trkpt lat="45.39037" lon="5.80735">
        <ele>1618.52</ele>
        <time>2013-02-23T08:23:00Z</time>
      </trkpt>
      <trkpt lat="45.39028" lon="5.80741">
        <ele>1620.92</ele>
        <time>2013-02-23T08:23:13Z</time>
      </trkpt>
      <trkpt lat="45.39023" lon="5.80742">
        <ele>1622.36</ele>
        <time>2013-02-23T08:23:22Z</time>
      </trkpt>
      <trkpt lat="45.39014" lon="5.80742">
        <ele>1624.77</ele>
        <time>2013-02-23T08:23:36Z</time>
      </trkpt>
      <trkpt lat="45.39005" lon="5.80742">
        <ele>1626.21</ele>
        <time>2013-02-23T08:23:48Z</time>
      </trkpt>
      <trkpt lat="45.38998" lon="5.80741">
        <ele>1627.17</ele>
        <time>2013-02-23T08:24:00Z</time>
      </trkpt>
      <trkpt lat="45.38987" lon="5.80745">
        <ele>1629.09</ele>
        <time>2013-02-23T08:24:14Z</time>
      </trkpt>
      <trkpt lat="45.38981" lon="5.80746">
        <ele>1631.49</ele>
        <time>2013-02-23T08:24:26Z</time>
      </trkpt>
      <trkpt lat="45.38973" lon="5.80749">
        <ele>1633.42</ele>
        <time>2013-02-23T08:24:40Z</time>
      </trkpt>
      <trkpt lat="45.38967" lon="5.80752">
        <ele>1635.82</ele>
        <time>2013-02-23T08:24:50Z</time>
      </trkpt>
      <trkpt lat="45.38958" lon="5.80758">
        <ele>1636.78</ele>
        <time>2013-02-23T08:25:02Z</time>
      </trkpt>
      <trkpt lat="45.3895" lon="5.8076">
        <ele>1637.74</ele>
        <time>2013-02-23T08:25:14Z</time>
      </trkpt>
      <trkpt lat="45.38942" lon="5.80762">
        <ele>1640.63</ele>
        <time>2013-02-23T08:25:28Z</time>
      </trkpt>
      <trkpt lat="45.38936" lon="5.80766">
        <ele>1642.55</ele>
        <time>2013-02-23T08:25:40Z</time>
      </trkpt>
      <trkpt lat="45.38929" lon="5.8077">
        <ele>1643.99</ele>
        <time>2013-02-23T08:25:52Z</time>
      </trkpt>
      <trkpt lat="45.38927" lon="5.80771">
        <ele>1644.95</ele>
        <time>2013-02-23T08:25:55Z</time>
      </trkpt>
      <trkpt lat="45.38918" lon="5.80776">
        <ele>1647.36</ele>
        <time>2013-02-23T08:26:10Z</time>
      </trkpt>
      <trkpt lat="45.38911" lon="5.8078">
        <ele>1649.28</ele>
        <time>2013-02-23T08:26:22Z</time>
      </trkpt>
      <trkpt lat="45.38906" lon="5.8078">
        <ele>1651.2</ele>
        <time>2013-02-23T08:26:36Z</time>
      </trkpt>
      <trkpt lat="45.38905" lon="5.80782">
        <ele>1652.16</ele>
        <time>2013-02-23T08:26:50Z</time>
      </trkpt>
      <trkpt lat="45.38904" lon="5.80778">
        <ele>1652.16</ele>
        <time>2013-02-23T08:27:16Z</time>
      </trkpt>
      <trkpt lat="45.38902" lon="5.80779">
        <ele>1652.16</ele>
        <time>2013-02-23T08:27:19Z</time>
      </trkpt>
      <trkpt lat="45.38894" lon="5.80777">
        <ele>1654.57</ele>
        <time>2013-02-23T08:27:32Z</time>
      </trkpt>
      <trkpt lat="45.38891" lon="5.80777">
        <ele>1655.53</ele>
        <time>2013-02-23T08:27:43Z</time>
      </trkpt>
      <trkpt lat="45.38895" lon="5.80768">
        <ele>1657.93</ele>
        <time>2013-02-23T08:27:56Z</time>
      </trkpt>
      <trkpt lat="45.38897" lon="5.8076">
        <ele>1660.33</ele>
        <time>2013-02-23T08:28:09Z</time>
      </trkpt>
      <trkpt lat="45.38892" lon="5.8076">
        <ele>1662.26</ele>
        <time>2013-02-23T08:28:20Z</time>
      </trkpt>
      <trkpt lat="45.38887" lon="5.8076">
        <ele>1663.7</ele>
        <time>2013-02-23T08:28:33Z</time>
      </trkpt>
      <trkpt lat="45.38882" lon="5.80763">
        <ele>1665.62</ele>
        <time>2013-02-23T08:28:45Z</time>
      </trkpt>
      <trkpt lat="45.38877" lon="5.80767">
        <ele>1666.58</ele>
        <time>2013-02-23T08:29:00Z</time>
      </trkpt>
      <trkpt lat="45.38872" lon="5.8077">
        <ele>1668.02</ele>
        <time>2013-02-23T08:29:10Z</time>
      </trkpt>
      <trkpt lat="45.38868" lon="5.80771">
        <ele>1669.95</ele>
        <time>2013-02-23T08:29:23Z</time>
      </trkpt>
      <trkpt lat="45.3887" lon="5.80762">
        <ele>1671.87</ele>
        <time>2013-02-23T08:29:37Z</time>
      </trkpt>
      <trkpt lat="45.38872" lon="5.80755">
        <ele>1673.31</ele>
        <time>2013-02-23T08:29:51Z</time>
      </trkpt>
      <trkpt lat="45.38875" lon="5.80745">
        <ele>1675.72</ele>
        <time>2013-02-23T08:30:05Z</time>
      </trkpt>
      <trkpt lat="45.38876" lon="5.80738">
        <ele>1677.16</ele>
        <time>2013-02-23T08:30:18Z</time>
      </trkpt>
      <trkpt lat="45.38874" lon="5.8074">
        <ele>1678.6</ele>
        <time>2013-02-23T08:30:27Z</time>
      </trkpt>
      <trkpt lat="45.38869" lon="5.80744">
        <ele>1680.52</ele>
        <time>2013-02-23T08:30:39Z</time>
      </trkpt>
      <trkpt lat="45.38863" lon="5.80749">
        <ele>1682.44</ele>
        <time>2013-02-23T08:30:50Z</time>
      </trkpt>
      <trkpt lat="45.38856" lon="5.80756">
        <ele>1684.37</ele>
        <time>2013-02-23T08:31:03Z</time>
      </trkpt>
      <trkpt lat="45.3885" lon="5.80763">
        <ele>1687.25</ele>
        <time>2013-02-23T08:31:16Z</time>
      </trkpt>
      <trkpt lat="45.38845" lon="5.80771">
        <ele>1689.17</ele>
        <time>2013-02-23T08:31:29Z</time>
      </trkpt>
      <trkpt lat="45.38837" lon="5.80777">
        <ele>1690.62</ele>
        <time>2013-02-23T08:31:41Z</time>
      </trkpt>
      <trkpt lat="45.3883" lon="5.80781">
        <ele>1693.5</ele>
        <time>2013-02-23T08:31:53Z</time>
      </trkpt>
      <trkpt lat="45.38825" lon="5.80781">
        <ele>1694.94</ele>
        <time>2013-02-23T08:32:04Z</time>
      </trkpt>
      <trkpt lat="45.38818" lon="5.80783">
        <ele>1696.38</ele>
        <time>2013-02-23T08:32:17Z</time>
      </trkpt>
      <trkpt lat="45.38811" lon="5.80783">
        <ele>1698.79</ele>
        <time>2013-02-23T08:32:30Z</time>
      </trkpt>
      <trkpt lat="45.38805" lon="5.80784">
        <ele>1700.71</ele>
        <time>2013-02-23T08:32:41Z</time>
      </trkpt>
      <trkpt lat="45.388" lon="5.80784">
        <ele>1702.63</ele>
        <time>2013-02-23T08:32:52Z</time>
      </trkpt>
      <trkpt lat="45.38793" lon="5.80786">
        <ele>1704.55</ele>
        <time>2013-02-23T08:33:04Z</time>
      </trkpt>
      <trkpt lat="45.38788" lon="5.80789">
        <ele>1706.96</ele>
        <time>2013-02-23T08:33:15Z</time>
      </trkpt>
      <trkpt lat="45.3878" lon="5.80795">
        <ele>1708.88</ele>
        <time>2013-02-23T08:33:28Z</time>
      </trkpt>
      <trkpt lat="45.38775" lon="5.80801">
        <ele>1710.8</ele>
        <time>2013-02-23T08:33:39Z</time>
      </trkpt>
      <trkpt lat="45.3877" lon="5.80809">
        <ele>1712.73</ele>
        <time>2013-02-23T08:33:51Z</time>
      </trkpt>
      <trkpt lat="45.38767" lon="5.80807">
        <ele>1714.17</ele>
        <time>2013-02-23T08:34:03Z</time>
      </trkpt>
      <trkpt lat="45.38763" lon="5.80812">
        <ele>1716.57</ele>
        <time>2013-02-23T08:34:15Z</time>
      </trkpt>
      <trkpt lat="45.38759" lon="5.80813">
        <ele>1718.01</ele>
        <time>2013-02-23T08:34:29Z</time>
      </trkpt>
      <trkpt lat="45.38756" lon="5.8081">
        <ele>1720.42</ele>
        <time>2013-02-23T08:34:42Z</time>
      </trkpt>
      <trkpt lat="45.38755" lon="5.80808">
        <ele>1719.46</ele>
        <time>2013-02-23T08:34:45Z</time>
      </trkpt>
      <trkpt lat="45.3875" lon="5.808">
        <ele>1720.9</ele>
        <time>2013-02-23T08:34:57Z</time>
      </trkpt>
      <trkpt lat="45.38749" lon="5.808">
        <ele>1721.86</ele>
        <time>2013-02-23T08:35:10Z</time>
      </trkpt>
      <trkpt lat="45.38749" lon="5.808">
        <ele>1721.38</ele>
        <time>2013-02-23T08:35:37Z</time>
      </trkpt>
      <trkpt lat="45.38748" lon="5.80805">
        <ele>1720.9</ele>
        <time>2013-02-23T08:35:54Z</time>
      </trkpt>
      <trkpt lat="45.38748" lon="5.80802">
        <ele>1720.9</ele>
        <time>2013-02-23T08:36:13Z</time>
      </trkpt>
      <trkpt lat="45.38748" lon="5.808">
        <ele>1719.46</ele>
        <time>2013-02-23T08:36:30Z</time>
      </trkpt>
      <trkpt lat="45.38749" lon="5.80802">
        <ele>1719.46</ele>
        <time>2013-02-23T08:37:05Z</time>
      </trkpt>
      <trkpt lat="45.38748" lon="5.80802">
        <ele>1718.97</ele>
        <time>2013-02-23T08:37:38Z</time>
      </trkpt>
      <trkpt lat="45.38749" lon="5.80801">
        <ele>1719.94</ele>
        <time>2013-02-23T08:38:03Z</time>
      </trkpt>
      <trkpt lat="45.38749" lon="5.80801">
        <ele>1719.94</ele>
        <time>2013-02-23T08:38:21Z</time>
      </trkpt>
      <trkpt lat="45.38746" lon="5.80804">
        <ele>1719.46</ele>
        <time>2013-02-23T08:38:45Z</time>
      </trkpt>
      <trkpt lat="45.38747" lon="5.80806">
        <ele>1718.97</ele>
        <time>2013-02-23T08:39:11Z</time>
      </trkpt>
      <trkpt lat="45.38748" lon="5.80805">
        <ele>1718.49</ele>
        <time>2013-02-23T08:39:32Z</time>
      </trkpt>
      <trkpt lat="45.38744" lon="5.80796">
        <ele>1718.97</ele>
        <time>2013-02-23T08:39:51Z</time>
      </trkpt>
      <trkpt lat="45.38738" lon="5.80786">
        <ele>1721.86</ele>
        <time>2013-02-23T08:40:07Z</time>
      </trkpt>
      <trkpt lat="45.38732" lon="5.80775">
        <ele>1725.22</ele>
        <time>2013-02-23T08:40:23Z</time>
      </trkpt>
      <trkpt lat="45.38729" lon="5.80759">
        <ele>1727.63</ele>
        <time>2013-02-23T08:40:40Z</time>
      </trkpt>
      <trkpt lat="45.3873" lon="5.80744">
        <ele>1730.51</ele>
        <time>2013-02-23T08:40:57Z</time>
      </trkpt>
      <trkpt lat="45.38732" lon="5.80729">
        <ele>1733.88</ele>
        <time>2013-02-23T08:41:15Z</time>
      </trkpt>
      <trkpt lat="45.38732" lon="5.8072">
        <ele>1736.76</ele>
        <time>2013-02-23T08:41:31Z</time>
      </trkpt>
      <trkpt lat="45.38725" lon="5.80717">
        <ele>1739.64</ele>
        <time>2013-02-23T08:41:47Z</time>
      </trkpt>
      <trkpt lat="45.38719" lon="5.80708">
        <ele>1743.01</ele>
        <time>2013-02-23T08:42:03Z</time>
      </trkpt>
      <trkpt lat="45.38724" lon="5.80702">
        <ele>1744.45</ele>
        <time>2013-02-23T08:42:18Z</time>
      </trkpt>
      <trkpt lat="45.38732" lon="5.80692">
        <ele>1747.81</ele>
        <time>2013-02-23T08:42:35Z</time>
      </trkpt>
      <trkpt lat="45.38723" lon="5.80688">
        <ele>1750.7</ele>
        <time>2013-02-23T08:42:51Z</time>
      </trkpt>
      <trkpt lat="45.38717" lon="5.80682">
        <ele>1753.58</ele>
        <time>2013-02-23T08:43:04Z</time>
      </trkpt>
      <trkpt lat="45.38717" lon="5.80675">
        <ele>1755.02</ele>
        <time>2013-02-23T08:43:20Z</time>
      </trkpt>
      <trkpt lat="45.38726" lon="5.80667">
        <ele>1757.91</ele>
        <time>2013-02-23T08:43:39Z</time>
      </trkpt>
      <trkpt lat="45.3873" lon="5.80663">
        <ele>1760.79</ele>
        <time>2013-02-23T08:43:50Z</time>
      </trkpt>
      <trkpt lat="45.38726" lon="5.80658">
        <ele>1764.16</ele>
        <time>2013-02-23T08:44:07Z</time>
      </trkpt>
      <trkpt lat="45.38717" lon="5.80653">
        <ele>1766.56</ele>
        <time>2013-02-23T08:44:23Z</time>
      </trkpt>
      <trkpt lat="45.38714" lon="5.80647">
        <ele>1765.6</ele>
        <time>2013-02-23T08:44:40Z</time>
      </trkpt>
      <trkpt lat="45.38723" lon="5.80643">
        <ele>1768.96</ele>
        <time>2013-02-23T08:44:57Z</time>
      </trkpt>
      <trkpt lat="45.38729" lon="5.80641">
        <ele>1769.44</ele>
        <time>2013-02-23T08:45:10Z</time>
      </trkpt>
      <trkpt lat="45.38734" lon="5.80636">
        <ele>1771.85</ele>
        <time>2013-02-23T08:45:27Z</time>
      </trkpt>
      <trkpt lat="45.38739" lon="5.80631">
        <ele>1771.37</ele>
        <time>2013-02-23T08:45:40Z</time>
      </trkpt>
      <trkpt lat="45.3874" lon="5.80628">
        <ele>1771.85</ele>
        <time>2013-02-23T08:45:54Z</time>
      </trkpt>
      <trkpt lat="45.38745" lon="5.80619">
        <ele>1772.81</ele>
        <time>2013-02-23T08:46:10Z</time>
      </trkpt>
      <trkpt lat="45.38749" lon="5.80613">
        <ele>1773.29</ele>
        <time>2013-02-23T08:46:27Z</time>
      </trkpt>
      <trkpt lat="45.38748" lon="5.80608">
        <ele>1772.81</ele>
        <time>2013-02-23T08:46:53Z</time>
      </trkpt>
      <trkpt lat="45.38748" lon="5.80609">
        <ele>1772.33</ele>
        <time>2013-02-23T08:47:18Z</time>
      </trkpt>
      <trkpt lat="45.38748" lon="5.80611">
        <ele>1772.81</ele>
        <time>2013-02-23T08:47:26Z</time>
      </trkpt>
      <trkpt lat="45.38748" lon="5.8061">
        <ele>1773.29</ele>
        <time>2013-02-23T08:47:30Z</time>
      </trkpt>
      <trkpt lat="45.38748" lon="5.8061">
        <ele>1772.33</ele>
        <time>2013-02-23T08:47:51Z</time>
      </trkpt>
      <trkpt lat="45.38747" lon="5.8061">
        <ele>1771.85</ele>
        <time>2013-02-23T08:48:10Z</time>
      </trkpt>
      <trkpt lat="45.38748" lon="5.80609">
        <ele>1771.85</ele>
        <time>2013-02-23T08:48:20Z</time>
      </trkpt>
      <trkpt lat="45.38748" lon="5.80609">
        <ele>1771.85</ele>
        <time>2013-02-23T08:48:21Z</time>
      </trkpt>
      <trkpt lat="45.38746" lon="5.80606">
        <ele>1770.89</ele>
        <time>2013-02-23T08:48:36Z</time>
      </trkpt>
      <trkpt lat="45.38749" lon="5.80609">
        <ele>1769.92</ele>
        <time>2013-02-23T08:49:03Z</time>
      </trkpt>
      <trkpt lat="45.38749" lon="5.80611">
        <ele>1770.89</ele>
        <time>2013-02-23T08:49:21Z</time>
      </trkpt>
      <trkpt lat="45.38749" lon="5.8061">
        <ele>1768.48</ele>
        <time>2013-02-23T08:49:43Z</time>
      </trkpt>
      <trkpt lat="45.38747" lon="5.80609">
        <ele>1769.92</ele>
        <time>2013-02-23T08:50:00Z</time>
      </trkpt>
      <trkpt lat="45.38747" lon="5.80608">
        <ele>1769.44</ele>
        <time>2013-02-23T08:50:22Z</time>
      </trkpt>
      <trkpt lat="45.38747" lon="5.80611">
        <ele>1770.41</ele>
        <time>2013-02-23T08:50:40Z</time>
      </trkpt>
      <trkpt lat="45.38748" lon="5.80609">
        <ele>1769.44</ele>
        <time>2013-02-23T08:51:03Z</time>
      </trkpt>
      <trkpt lat="45.38748" lon="5.8061">
        <ele>1768</ele>
        <time>2013-02-23T08:51:04Z</time>
      </trkpt>
      <trkpt lat="45.38753" lon="5.80618">
        <ele>1765.6</ele>
        <time>2013-02-23T08:51:07Z</time>
      </trkpt>
      <trkpt lat="45.38755" lon="5.80619">
        <ele>1762.23</ele>
        <time>2013-02-23T08:51:09Z</time>
      </trkpt>
      <trkpt lat="45.38751" lon="5.80615">
        <ele>1765.6</ele>
        <time>2013-02-23T08:51:21Z</time>
      </trkpt>
      <trkpt lat="45.38747" lon="5.80609">
        <ele>1768.48</ele>
        <time>2013-02-23T08:51:37Z</time>
      </trkpt>
    </trkseg>
  </trk>
</gpx>